Time;durP1;ratioP1;P1;durP2;ratioP2;P2;SDS_P1;SDS_P2;PMS_P1;PMS_P2;Temp;Humidity;BMP_temperature;BMP_pressure;BME280_temperature;BME280_humidity;BME280_pressure;Samples;Min_cycle;Max_cycle;Signal;HPM_P1;HPM_P2
2022/06/24 00:02:02;;;;;;;0.40;0.20;;;24.30;58.60;;;;;;6276707;28;20164;-47
2022/06/24 00:05:08;;;;;;;0.32;0.20;;;24.40;58.70;;;;;;6274125;28;20040;-45
2022/06/24 00:08:10;;;;;;;0.15;0.15;;;24.40;58.80;;;;;;6275383;28;20126;-45
2022/06/24 00:11:12;;;;;;;0.22;0.20;;;24.30;58.80;;;;;;6275118;28;20063;-49
2022/06/24 00:14:15;;;;;;;0.85;0.20;;;24.30;59.50;;;;;;6274965;28;21167;-44
2022/06/24 00:17:18;;;;;;;0.10;0.10;;;24.40;58.90;;;;;;6279210;28;20174;-47
2022/06/24 00:20:22;;;;;;;0.20;0.17;;;24.30;58.90;;;;;;6280410;28;20052;-45
2022/06/24 00:23:24;;;;;;;0.20;0.20;;;24.30;58.90;;;;;;6280110;28;21050;-47
2022/06/24 00:26:38;;;;;;;0.20;0.17;;;24.30;59.00;;;;;;6277958;28;20076;-45
2022/06/24 00:29:47;;;;;;;0.30;0.20;;;24.30;59.20;;;;;;6275962;28;20040;-46
2022/06/24 00:32:48;;;;;;;0.10;0.10;;;24.30;59.20;;;;;;6269033;28;20910;-44
2022/06/24 00:35:52;;;;;;;0.50;0.20;;;24.30;59.20;;;;;;6280698;28;20044;-46
2022/06/24 00:38:54;;;;;;;0.10;0.10;;;24.20;59.30;;;;;;6285414;28;20044;-44
2022/06/24 00:41:56;;;;;;;0.10;0.10;;;24.30;59.40;;;;;;6280223;28;20176;-46
2022/06/24 00:45:13;;;;;;;0.10;0.10;;;24.30;59.50;;;;;;6277302;28;20606;-45
2022/06/24 00:48:16;;;;;;;0.10;0.10;;;24.30;59.50;;;;;;6275156;28;21079;-48
2022/06/24 00:51:20;;;;;;;0.10;0.10;;;24.20;59.50;;;;;;6270176;28;20409;-45
2022/06/24 00:54:24;;;;;;;0.15;0.10;;;24.30;59.70;;;;;;6279993;28;20050;-44
2022/06/24 00:57:26;;;;;;;0.10;0.10;;;24.20;59.70;;;;;;6283261;28;20122;-48
2022/06/24 01:00:29;;;;;;;0.22;0.10;;;24.20;59.70;;;;;;6279561;28;21016;-47
2022/06/24 01:03:37;;;;;;;0.10;0.10;;;24.20;59.80;;;;;;6277407;28;20086;-47
2022/06/24 01:06:41;;;;;;;0.32;0.10;;;24.20;59.90;;;;;;6276742;28;20040;-48
2022/06/24 01:09:42;;;;;;;0.10;0.10;;;24.10;59.80;;;;;;6283440;28;20051;-50
2022/06/24 01:12:45;;;;;;;0.20;0.17;;;24.20;59.90;;;;;;6275209;28;20403;-47
2022/06/24 01:15:46;;;;;;;0.10;0.10;;;24.20;60.00;;;;;;6268690;28;20803;-51
2022/06/24 01:18:51;;;;;;;0.35;0.20;;;24.20;60.00;;;;;;6264929;28;20844;-45
2022/06/24 01:21:53;;;;;;;0.10;0.10;;;24.20;60.00;;;;;;6263391;28;20272;-48
2022/06/24 01:24:54;;;;;;;0.10;0.10;;;24.20;60.00;;;;;;6267062;28;20296;-45
2022/06/24 01:27:56;;;;;;;0.10;0.10;;;24.00;60.00;;;;;;6265781;28;20850;-48
2022/06/24 01:30:58;;;;;;;0.20;0.10;;;24.20;60.20;;;;;;6268773;28;20056;-46
2022/06/24 01:33:59;;;;;;;0.10;0.10;;;24.10;60.20;;;;;;6264350;28;20128;-44
2022/06/24 01:37:02;;;;;;;0.10;0.10;;;24.20;60.30;;;;;;6263588;28;20371;-49
2022/06/24 01:40:04;;;;;;;0.10;0.10;;;24.10;60.30;;;;;;6263689;28;20227;-47
2022/06/24 01:43:06;;;;;;;0.10;0.10;;;24.10;60.30;;;;;;6262343;28;20280;-47
2022/06/24 01:46:08;;;;;;;0.20;0.20;;;24.10;60.40;;;;;;6267524;28;20051;-45
2022/06/24 01:49:10;;;;;;;0.20;0.20;;;24.20;60.50;;;;;;6264568;28;20074;-45
2022/06/24 01:52:12;;;;;;;0.20;0.20;;;24.00;60.40;;;;;;6260816;28;20060;-46
2022/06/24 01:55:14;;;;;;;0.10;0.10;;;24.10;60.50;;;;;;6264308;28;20044;-46
2022/06/24 01:58:15;;;;;;;0.10;0.10;;;24.10;60.50;;;;;;6265151;28;20040;-47
2022/06/24 02:01:17;;;;;;;0.10;0.10;;;24.10;60.60;;;;;;6267152;28;20231;-48
2022/06/24 02:04:18;;;;;;;0.10;0.10;;;24.00;60.70;;;;;;6265188;28;20043;-47
2022/06/24 02:07:21;;;;;;;0.10;0.10;;;24.00;60.60;;;;;;6264387;28;20906;-48
2022/06/24 02:13:39;;;;;;;0.10;0.10;;;24.10;60.70;;;;;;6266034;28;20385;-48
2022/06/24 02:16:42;;;;;;;0.30;0.10;;;24.10;60.70;;;;;;6265879;28;20870;-47
2022/06/24 02:19:43;;;;;;;0.10;0.10;;;24.10;60.70;;;;;;6264596;28;20121;-47
2022/06/24 02:22:45;;;;;;;0.10;0.10;;;24.10;60.70;;;;;;6263910;28;20087;-47
2022/06/24 02:25:48;;;;;;;0.20;0.17;;;24.10;60.80;;;;;;6259295;28;20721;-44
2022/06/24 02:28:50;;;;;;;0.10;0.10;;;24.00;60.70;;;;;;6265733;28;20475;-45
2022/06/24 02:31:51;;;;;;;0.25;0.25;;;24.00;60.80;;;;;;6258143;28;20270;-46
2022/06/24 02:34:53;;;;;;;0.10;0.10;;;24.00;60.90;;;;;;6258789;28;20360;-44
2022/06/24 02:37:55;;;;;;;0.25;0.25;;;24.00;60.90;;;;;;6265953;28;20039;-50
2022/06/24 02:40:58;;;;;;;0.20;0.20;;;24.00;60.90;;;;;;6262978;28;20520;-46
2022/06/24 02:44:00;;;;;;;0.20;0.20;;;24.00;61.20;;;;;;6264477;28;20043;-46
2022/06/24 02:47:01;;;;;;;0.17;0.10;;;24.00;61.00;;;;;;6266655;28;20350;-46
2022/06/24 02:50:03;;;;;;;0.10;0.10;;;24.00;61.10;;;;;;6269624;28;20617;-47
2022/06/24 02:53:06;;;;;;;0.30;0.20;;;24.00;61.10;;;;;;6271403;28;20056;-47
2022/06/24 02:56:09;;;;;;;0.10;0.10;;;24.00;61.20;;;;;;6267927;28;20468;-46
2022/06/24 02:59:11;;;;;;;0.50;0.20;;;24.00;61.20;;;;;;6270290;28;20047;-49
2022/06/24 03:02:12;;;;;;;0.17;0.15;;;24.00;61.20;;;;;;6269181;28;20052;-48
2022/06/24 03:05:14;;;;;;;0.20;0.13;;;23.80;61.10;;;;;;6271384;28;20315;-44
2022/06/24 03:08:18;;;;;;;0.45;0.20;;;24.10;61.30;;;;;;6272980;28;20166;-45
2022/06/24 03:11:19;;;;;;;0.38;0.20;;;23.90;61.20;;;;;;6265253;28;20268;-47
2022/06/24 03:14:21;;;;;;;0.10;0.10;;;23.80;61.20;;;;;;6266686;28;20369;-45
2022/06/24 03:17:22;;;;;;;0.28;0.20;;;23.80;61.40;;;;;;6279166;28;20063;-43
2022/06/24 03:20:24;;;;;;;1.70;0.20;;;23.90;61.20;;;;;;6276880;28;20373;-47
2022/06/24 03:23:27;;;;;;;0.20;0.20;;;24.00;61.90;;;;;;6267830;28;20067;-44
2022/06/24 03:26:28;;;;;;;0.85;0.17;;;23.90;62.00;;;;;;6270475;28;20791;-44
2022/06/24 03:29:31;;;;;;;0.20;0.20;;;23.80;61.90;;;;;;6271224;28;20150;-43
2022/06/24 03:32:32;;;;;;;0.30;0.20;;;23.90;62.00;;;;;;6262170;28;20875;-45
2022/06/24 03:35:35;;;;;;;0.40;0.20;;;24.00;61.90;;;;;;6266724;28;20580;-44
2022/06/24 03:38:37;;;;;;;0.20;0.20;;;24.10;61.90;;;;;;6271101;28;20800;-45
2022/06/24 03:41:44;;;;;;;0.38;0.20;;;23.80;61.80;;;;;;6285822;28;20044;-47
2022/06/24 03:44:46;;;;;;;1.05;0.30;;;23.80;61.80;;;;;;6286748;28;20044;-45
2022/06/24 03:47:47;;;;;;;0.20;0.20;;;24.00;62.00;;;;;;6279780;28;20050;-47
2022/06/24 03:50:49;;;;;;;0.45;0.30;;;23.80;62.00;;;;;;6283303;28;20147;-49
2022/06/24 03:53:51;;;;;;;0.47;0.28;;;23.80;61.90;;;;;;6274250;28;20081;-47
2022/06/24 03:56:53;;;;;;;0.40;0.30;;;23.80;62.00;;;;;;6267341;28;20178;-47
2022/06/24 03:59:54;;;;;;;0.30;0.20;;;23.90;62.10;;;;;;6265353;28;20355;-47
2022/06/24 04:02:56;;;;;;;0.20;0.20;;;23.80;62.00;;;;;;6258018;28;20080;-46
2022/06/24 04:05:57;;;;;;;0.20;0.20;;;23.80;62.00;;;;;;6151837;28;20297;-44
2022/06/24 04:08:59;;;;;;;0.20;0.20;;;23.80;62.00;;;;;;6143938;28;20735;-46
2022/06/24 04:12:01;;;;;;;0.32;0.30;;;23.90;62.00;;;;;;6266483;28;20267;-45
2022/06/24 04:18:19;;;;;;;0.40;0.30;;;23.90;62.00;;;;;;6251359;28;20151;-44
2022/06/24 04:21:21;;;;;;;0.25;0.20;;;23.90;62.00;;;;;;6266058;28;20481;-45
2022/06/24 04:24:23;;;;;;;1.17;0.30;;;23.80;61.90;;;;;;6268230;28;20136;-48
2022/06/24 04:27:25;;;;;;;0.40;0.25;;;23.90;61.90;;;;;;6266597;28;20678;-48
2022/06/24 04:30:27;;;;;;;0.30;0.30;;;23.80;61.80;;;;;;6261496;28;20135;-44
2022/06/24 04:33:29;;;;;;;0.40;0.30;;;23.80;61.80;;;;;;6265632;28;20232;-45
2022/06/24 04:36:30;;;;;;;0.68;0.30;;;23.90;61.80;;;;;;6266293;28;20669;-45
2022/06/24 04:39:32;;;;;;;0.25;0.20;;;23.90;61.80;;;;;;6264989;28;20067;-47
2022/06/24 04:42:34;;;;;;;0.30;0.30;;;23.80;61.70;;;;;;6261478;28;20071;-45
2022/06/24 04:45:37;;;;;;;0.28;0.28;;;23.90;61.80;;;;;;6266866;28;20089;-44
2022/06/24 04:48:38;;;;;;;0.57;0.45;;;23.90;61.70;;;;;;6264013;28;20427;-45
2022/06/24 04:51:40;;;;;;;0.30;0.28;;;23.90;61.70;;;;;;6258607;28;20123;-46
2022/06/24 04:54:42;;;;;;;0.50;0.50;;;23.90;61.60;;;;;;6253986;28;20058;-44
2022/06/24 04:57:44;;;;;;;0.17;0.17;;;23.90;61.60;;;;;;6261786;28;20158;-47
2022/06/24 05:00:45;;;;;;;0.30;0.30;;;24.00;61.80;;;;;;6266389;28;20124;-47
2022/06/24 05:03:47;;;;;;;0.30;0.30;;;23.90;61.50;;;;;;6261053;28;20079;-47
2022/06/24 05:06:49;;;;;;;0.30;0.30;;;23.90;61.60;;;;;;6278906;28;20138;-45
2022/06/24 05:09:51;;;;;;;0.43;0.30;;;23.90;61.50;;;;;;6282469;28;20055;-46
2022/06/24 05:12:53;;;;;;;0.50;0.30;;;24.00;61.70;;;;;;6272594;28;20051;-45
2022/06/24 05:15:55;;;;;;;0.30;0.30;;;23.90;61.60;;;;;;6279411;28;20419;-44
2022/06/24 05:18:56;;;;;;;0.68;0.50;;;23.90;61.60;;;;;;6278687;28;20134;-44
2022/06/24 05:21:58;;;;;;;0.20;0.20;;;23.90;61.60;;;;;;6267574;28;20995;-45
2022/06/24 05:25:01;;;;;;;0.43;0.43;;;23.90;61.60;;;;;;6261961;28;20035;-47
2022/06/24 05:28:03;;;;;;;0.50;0.38;;;24.00;61.70;;;;;;6265685;28;21021;-47
2022/06/24 05:31:04;;;;;;;0.38;0.38;;;23.90;61.70;;;;;;6269377;28;20051;-47
2022/06/24 05:34:07;;;;;;;0.40;0.30;;;24.00;61.70;;;;;;6246434;28;20277;-47
2022/06/24 05:37:08;;;;;;;0.40;0.40;;;24.00;61.70;;;;;;6259004;28;20050;-47
2022/06/24 05:40:11;;;;;;;0.30;0.30;;;24.00;61.70;;;;;;6255213;28;20174;-46
2022/06/24 05:43:13;;;;;;;0.30;0.30;;;23.90;61.60;;;;;;6248153;28;20403;-47
2022/06/24 05:46:15;;;;;;;0.55;0.40;;;24.00;61.60;;;;;;6260508;28;20082;-46
2022/06/24 05:49:17;;;;;;;0.38;0.38;;;24.00;61.70;;;;;;6277623;28;20040;-46
2022/06/24 05:55:02;;;;;;;0.50;0.50;;;24.10;61.60;;;;;;6257262;28;20147;-45
2022/06/24 05:55:41;;;;;;;0.65;0.30;;;24.00;61.60;;;;;;6274420;28;20097;-46
2022/06/24 05:58:42;;;;;;;0.85;0.47;;;24.10;61.60;;;;;;6260176;28;20676;-48
2022/06/24 06:01:44;;;;;;;0.30;0.30;;;24.00;61.50;;;;;;6249433;28;20058;-45
2022/06/24 06:04:45;;;;;;;0.50;0.40;;;24.00;61.40;;;;;;6238622;28;20047;-45
2022/06/24 06:07:47;;;;;;;0.55;0.47;;;24.00;61.40;;;;;;6244744;28;20548;-47
2022/06/24 06:10:49;;;;;;;0.80;0.65;;;24.00;61.40;;;;;;6248862;28;20071;-46
2022/06/24 06:13:52;;;;;;;0.60;0.50;;;24.10;61.40;;;;;;6241895;28;20644;-46
2022/06/24 06:16:54;;;;;;;0.60;0.40;;;24.00;61.30;;;;;;6257131;28;20044;-45
2022/06/24 06:19:56;;;;;;;0.32;0.30;;;24.10;61.30;;;;;;6257915;28;20055;-44
2022/06/24 06:22:58;;;;;;;0.43;0.40;;;24.10;61.30;;;;;;6224405;28;20040;-46
2022/06/24 06:26:02;;;;;;;0.75;0.52;;;24.10;61.30;;;;;;6263266;28;20061;-48
2022/06/24 06:29:04;;;;;;;0.43;0.40;;;24.10;61.30;;;;;;6237463;28;20036;-45
2022/06/24 06:32:06;;;;;;;1.50;0.50;;;24.10;61.30;;;;;;6251662;28;20044;-43
2022/06/24 06:35:09;;;;;;;0.50;0.30;;;24.10;61.30;;;;;;6243055;28;20222;-44
2022/06/24 06:38:11;;;;;;;0.65;0.40;;;24.10;61.40;;;;;;6229859;28;20040;-46
2022/06/24 06:41:13;;;;;;;1.08;0.77;;;24.10;61.50;;;;;;6229975;28;20051;-45
2022/06/24 06:44:16;;;;;;;3.05;0.80;;;24.10;61.50;;;;;;6226669;28;20150;-45
2022/06/24 06:47:19;;;;;;;0.50;0.50;;;24.10;61.50;;;;;;6231895;28;20032;-46
2022/06/24 06:50:20;;;;;;;1.50;0.60;;;24.20;61.70;;;;;;6199562;28;20626;-44
2022/06/24 06:53:22;;;;;;;0.80;0.70;;;24.10;61.40;;;;;;6176431;28;20401;-47
2022/06/24 06:56:25;;;;;;;1.40;0.65;;;24.20;61.50;;;;;;6172081;28;22056;-46
2022/06/24 06:59:26;;;;;;;1.02;0.65;;;24.20;61.40;;;;;;6153220;28;20043;-47
2022/06/24 07:02:28;;;;;;;1.00;0.70;;;24.20;61.30;;;;;;6149488;28;21177;-44
2022/06/24 07:05:31;;;;;;;2.70;0.93;;;24.00;61.10;;;;;;6187353;28;20338;-44
2022/06/24 07:08:33;;;;;;;2.08;1.10;;;24.20;61.10;;;;;;6179873;28;20712;-45
2022/06/24 07:11:35;;;;;;;2.83;1.27;;;24.20;61.00;;;;;;6140122;28;20170;-46
2022/06/24 07:14:39;;;;;;;2.90;1.60;;;24.20;60.70;;;;;;6160796;28;20106;-45
2022/06/24 07:17:48;;;;;;;2.53;1.33;;;24.20;60.50;;;;;;6176577;28;20044;-49
2022/06/24 07:20:50;;;;;;;1.90;1.23;;;24.20;60.30;;;;;;6164369;28;20150;-46
2022/06/24 07:23:51;;;;;;;1.88;1.20;;;24.30;60.30;;;;;;6172547;28;21026;-44
2022/06/24 07:26:54;;;;;;;1.45;1.35;;;24.30;60.20;;;;;;6174211;28;20051;-47
2022/06/24 07:29:56;;;;;;;1.20;0.90;;;24.30;60.00;;;;;;6177911;28;20042;-45
2022/06/24 07:32:57;;;;;;;2.45;1.50;;;24.30;60.00;;;;;;6155964;28;20149;-47
2022/06/24 07:35:59;;;;;;;2.95;1.65;;;24.50;60.00;;;;;;6168887;28;20226;-47
2022/06/24 07:39:01;;;;;;;1.67;1.42;;;24.30;59.90;;;;;;6147491;28;20162;-45
2022/06/24 07:42:04;;;;;;;2.55;1.52;;;24.20;59.70;;;;;;6174972;28;21843;-45
2022/06/24 07:45:06;;;;;;;1.98;1.55;;;24.40;59.80;;;;;;6164290;28;20131;-43
2022/06/24 07:48:09;;;;;;;2.03;1.50;;;24.40;59.80;;;;;;6160878;28;20101;-45
2022/06/24 07:51:13;;;;;;;2.00;1.45;;;24.30;59.80;;;;;;6155570;28;20044;-43
2022/06/24 07:54:15;;;;;;;2.67;1.50;;;24.30;59.80;;;;;;6159140;28;20050;-43
2022/06/24 07:57:17;;;;;;;1.52;1.10;;;24.30;59.70;;;;;;6155788;28;20044;-43
2022/06/24 08:00:19;;;;;;;2.28;1.27;;;24.30;59.60;;;;;;6179544;28;20056;-45
2022/06/24 08:03:21;;;;;;;1.85;0.98;;;24.30;59.50;;;;;;6138165;28;20079;-44
2022/06/24 08:06:23;;;;;;;1.65;1.05;;;24.30;59.40;;;;;;6109568;28;20042;-46
2022/06/24 08:09:27;;;;;;;1.63;1.20;;;24.30;59.30;;;;;;6124930;28;20368;-45
2022/06/24 08:12:29;;;;;;;1.45;1.00;;;24.30;59.10;;;;;;6121903;28;20296;-46
2022/06/24 08:15:31;;;;;;;2.78;1.13;;;24.30;58.90;;;;;;6116914;28;22277;-46
2022/06/24 08:18:33;;;;;;;1.98;1.20;;;24.30;59.10;;;;;;6121678;28;21337;-48
2022/06/24 08:21:35;;;;;;;1.75;1.30;;;24.30;58.30;;;;;;6159878;28;20048;-47
2022/06/24 08:24:37;;;;;;;1.95;1.08;;;24.40;58.20;;;;;;6124780;28;23134;-46
2022/06/24 08:27:39;;;;;;;2.40;1.40;;;24.40;58.00;;;;;;6140748;28;20873;-45
2022/06/24 08:30:41;;;;;;;2.00;1.48;;;24.30;57.80;;;;;;6125323;28;20058;-43
2022/06/24 08:33:42;;;;;;;3.58;1.30;;;24.40;57.80;;;;;;6115325;28;20237;-47
2022/06/24 08:36:44;;;;;;;4.35;1.58;;;24.40;57.80;;;;;;6112740;28;20061;-43
2022/06/24 08:39:46;;;;;;;3.47;1.42;;;24.30;57.50;;;;;;6147456;28;20046;-43
2022/06/24 08:42:52;;;;;;;1.58;1.13;;;24.30;57.40;;;;;;6125218;28;20170;-47
2022/06/24 08:45:54;;;;;;;2.47;1.25;;;24.40;57.30;;;;;;6125730;28;21680;-47
2022/06/24 08:48:59;;;;;;;2.50;1.83;;;24.30;57.20;;;;;;6104369;28;20047;-44
2022/06/24 08:52:03;;;;;;;1.83;1.10;;;24.40;57.20;;;;;;6089823;28;20786;-43
2022/06/24 08:55:05;;;;;;;2.88;1.30;;;24.40;57.00;;;;;;6104100;28;20065;-44
2022/06/24 08:58:13;;;;;;;2.40;1.10;;;24.50;57.00;;;;;;6105072;28;20128;-46
2022/06/24 09:01:16;;;;;;;2.05;1.23;;;24.40;56.70;;;;;;6108461;28;20079;-44
2022/06/24 09:04:17;;;;;;;2.08;1.33;;;24.50;56.70;;;;;;6102122;28;20047;-45
2022/06/24 09:07:25;;;;;;;3.38;1.63;;;24.40;56.50;;;;;;6121755;28;20040;-45
2022/06/24 09:10:26;;;;;;;2.75;1.23;;;24.40;56.40;;;;;;6144098;28;20059;-43
2022/06/24 09:13:29;;;;;;;1.45;0.98;;;24.50;56.50;;;;;;6142407;28;20043;-43
2022/06/24 09:16:31;;;;;;;2.30;1.15;;;24.50;56.40;;;;;;6126360;28;20050;-43
2022/06/24 09:19:33;;;;;;;3.00;1.10;;;24.50;56.40;;;;;;6137163;28;20147;-44
2022/06/24 09:22:35;;;;;;;2.70;1.20;;;24.50;56.30;;;;;;6129223;28;21249;-47
2022/06/24 09:25:42;;;;;;;1.65;1.13;;;24.40;56.20;;;;;;6177186;27;20156;-44
2022/06/24 09:28:47;;;;;;;2.00;1.27;;;24.50;56.20;;;;;;6141937;28;20064;-45
2022/06/24 09:31:49;;;;;;;2.15;1.10;;;24.50;56.20;;;;;;6159769;28;20043;-44
2022/06/24 09:35:01;;;;;;;1.85;1.20;;;24.40;56.10;;;;;;6129022;28;20106;-42
2022/06/24 09:38:02;;;;;;;1.15;0.85;;;24.50;56.20;;;;;;6133807;28;20081;-42
2022/06/24 09:41:05;;;;;;;2.03;1.27;;;24.50;56.20;;;;;;6134021;28;33463;-43
2022/06/24 09:44:07;;;;;;;3.13;1.25;;;24.50;56.20;;;;;;6142493;28;20147;-43
2022/06/24 09:47:08;;;;;;;2.90;0.88;;;24.50;56.20;;;;;;6112906;28;31351;-45
2022/06/24 09:50:10;;;;;;;1.25;0.80;;;24.40;56.30;;;;;;6140522;28;20051;-46
2022/06/24 09:53:14;;;;;;;1.48;0.90;;;24.50;56.60;;;;;;6129140;28;20055;-45
2022/06/24 09:56:16;;;;;;;1.23;0.90;;;24.50;56.70;;;;;;6150716;28;21832;-45
2022/06/24 10:02:33;;;;;;;1.33;0.80;;;24.60;57.10;;;;;;6126666;28;20043;-43
2022/06/24 10:05:37;;;;;;;2.20;0.60;;;24.60;57.30;;;;;;6132051;28;20516;-45
2022/06/24 10:08:42;;;;;;;0.93;0.60;;;24.60;57.50;;;;;;6099279;28;20040;-44
2022/06/24 10:12:05;;;;;;;0.85;0.65;;;24.70;57.70;;;;;;6127555;28;20390;-44
2022/06/24 10:15:09;;;;;;;1.25;0.50;;;24.70;57.80;;;;;;6119650;28;20039;-43
2022/06/24 10:18:12;;;;;;;0.40;0.40;;;24.60;57.80;;;;;;6132881;28;20051;-45
2022/06/24 10:21:19;;;;;;;0.68;0.47;;;24.70;57.90;;;;;;6172440;28;20052;-46
2022/06/24 10:24:21;;;;;;;0.40;0.38;;;24.70;58.00;;;;;;6154238;28;20048;-47
2022/06/24 10:27:58;;;;;;;0.68;0.50;;;24.70;58.00;;;;;;6171525;28;20043;-45
2022/06/24 10:31:00;;;;;;;0.50;0.40;;;24.70;58.10;;;;;;6136967;28;20801;-48
2022/06/24 10:34:02;;;;;;;0.50;0.40;;;24.80;58.10;;;;;;6186282;28;20042;-48
2022/06/24 10:37:08;;;;;;;0.60;0.60;;;24.80;58.10;;;;;;6185235;28;20084;-45
2022/06/24 10:40:23;;;;;;;0.52;0.50;;;24.80;58.10;;;;;;6203267;28;20939;-44
2022/06/24 10:43:35;;;;;;;0.70;0.50;;;24.80;58.10;;;;;;6195897;28;20141;-45
2022/06/24 10:46:37;;;;;;;0.52;0.40;;;24.80;58.00;;;;;;6181722;28;20100;-46
2022/06/24 10:49:55;;;;;;;0.50;0.50;;;24.80;57.80;;;;;;6212347;28;21219;-47
2022/06/24 10:53:02;;;;;;;0.50;0.50;;;24.70;57.50;;;;;;6178704;28;20047;-46
2022/06/24 10:56:04;;;;;;;0.60;0.40;;;24.80;57.40;;;;;;6187071;28;20124;-44
2022/06/24 10:59:05;;;;;;;0.63;0.50;;;24.80;57.20;;;;;;6187470;28;21113;-44
2022/06/24 11:02:07;;;;;;;0.45;0.45;;;24.80;56.90;;;;;;6195108;28;20092;-48
2022/06/24 11:05:13;;;;;;;0.40;0.40;;;25.00;56.80;;;;;;6217046;28;21377;-45
2022/06/24 11:08:16;;;;;;;0.50;0.40;;;24.90;56.50;;;;;;6216495;28;20054;-45
2022/06/24 11:11:27;;;;;;;0.43;0.40;;;24.80;56.30;;;;;;6215295;28;20039;-43
2022/06/24 11:14:28;;;;;;;0.60;0.50;;;24.90;56.10;;;;;;6200264;28;22746;-45
2022/06/24 11:17:31;;;;;;;0.52;0.40;;;24.90;55.90;;;;;;6196027;28;20112;-45
2022/06/24 11:20:35;;;;;;;0.43;0.40;;;24.90;55.60;;;;;;6221138;28;20046;-46
2022/06/24 11:23:38;;;;;;;0.75;0.40;;;24.90;55.30;;;;;;6208047;28;20126;-44
2022/06/24 11:26:40;;;;;;;1.45;0.50;;;24.90;55.10;;;;;;6236343;28;20182;-44
2022/06/24 11:29:53;;;;;;;1.15;0.40;;;24.90;54.80;;;;;;6228500;28;20125;-56
2022/06/24 11:32:57;;;;;;;0.57;0.38;;;24.90;54.50;;;;;;6201257;28;20048;-45
2022/06/24 11:36:02;;;;;;;0.60;0.60;;;24.90;54.70;;;;;;6207607;28;20044;-46
2022/06/24 11:39:06;;;;;;;0.57;0.40;;;24.90;54.20;;;;;;6173191;28;20078;-44
2022/06/24 11:42:07;;;;;;;0.75;0.45;;;24.90;54.20;;;;;;6193824;28;21534;-48
2022/06/24 11:45:09;;;;;;;0.40;0.40;;;24.90;54.00;;;;;;6209605;28;20051;-45
2022/06/24 11:48:21;;;;;;;0.40;0.38;;;24.90;53.90;;;;;;6187062;28;20039;-44
2022/06/24 11:51:23;;;;;;;1.10;0.47;;;24.90;53.90;;;;;;6188530;28;20159;-47
2022/06/24 11:54:26;;;;;;;0.47;0.40;;;24.90;53.30;;;;;;6175968;28;20163;-44
2022/06/24 11:57:28;;;;;;;1.27;0.40;;;24.90;53.70;;;;;;6069993;28;20438;-48
2022/06/24 12:00:33;;;;;;;0.60;0.50;;;24.90;54.30;;;;;;6105290;28;20621;-45
2022/06/24 12:03:35;;;;;;;0.50;0.40;;;24.90;53.50;;;;;;6093369;28;20035;-45
2022/06/24 12:06:38;;;;;;;0.50;0.40;;;24.80;53.20;;;;;;6124944;28;20054;-43
2022/06/24 12:09:42;;;;;;;0.45;0.30;;;24.80;53.00;;;;;;6126712;28;20036;-44
2022/06/24 12:12:55;;;;;;;0.65;0.50;;;24.80;52.70;;;;;;6133405;28;20062;-46
2022/06/24 12:15:59;;;;;;;0.50;0.40;;;24.80;52.50;;;;;;6117311;28;20050;-47
2022/06/24 12:19:08;;;;;;;0.80;0.32;;;24.80;52.30;;;;;;6057999;28;20162;-46
2022/06/24 12:22:11;;;;;;;0.43;0.35;;;24.80;52.00;;;;;;6115086;28;20047;-43
2022/06/24 12:25:13;;;;;;;0.47;0.30;;;24.80;51.90;;;;;;6154846;28;20055;-43
2022/06/24 12:28:18;;;;;;;0.60;0.32;;;24.60;51.70;;;;;;6131833;28;20158;-46
2022/06/24 12:31:19;;;;;;;1.25;0.30;;;24.70;51.60;;;;;;6143536;28;20039;-46
2022/06/24 12:34:26;;;;;;;0.32;0.28;;;24.80;51.60;;;;;;6137995;28;20099;-44
2022/06/24 12:37:27;;;;;;;0.30;0.25;;;24.80;51.50;;;;;;6079787;28;20058;-44
2022/06/24 12:40:30;;;;;;;0.40;0.30;;;24.80;51.50;;;;;;6130442;28;20043;-43
2022/06/24 12:43:31;;;;;;;0.77;0.40;;;24.70;51.40;;;;;;6105646;28;20167;-44
2022/06/24 12:50:34;;;;;;;0.40;0.28;;;24.60;51.30;;;;;;6118152;28;20050;-43
2022/06/24 12:53:22;;;;;;;0.52;0.30;;;24.70;51.30;;;;;;6107986;28;20047;-45
2022/06/24 12:56:25;;;;;;;0.80;0.40;;;24.70;51.30;;;;;;6135788;28;20112;-43
2022/06/24 12:59:29;;;;;;;0.30;0.20;;;24.70;51.20;;;;;;6150153;28;20043;-47
2022/06/24 13:02:31;;;;;;;0.47;0.30;;;24.70;51.10;;;;;;6117174;28;21311;-43
2022/06/24 13:05:34;;;;;;;0.40;0.20;;;24.60;50.80;;;;;;6107826;28;21019;-45
2022/06/24 13:08:35;;;;;;;0.43;0.30;;;24.80;50.90;;;;;;6081113;28;20760;-47
2022/06/24 13:11:37;;;;;;;0.30;0.10;;;24.70;50.70;;;;;;6112463;28;20044;-44
2022/06/24 13:14:38;;;;;;;0.20;0.20;;;24.70;50.90;;;;;;6093417;28;20286;-45
2022/06/24 13:17:41;;;;;;;0.30;0.20;;;24.70;50.60;;;;;;6161346;28;20057;-45
2022/06/24 13:20:43;;;;;;;0.10;0.10;;;24.70;50.50;;;;;;6153882;28;20072;-44
2022/06/24 13:23:44;;;;;;;0.10;0.10;;;24.70;50.40;;;;;;6142195;28;20181;-44
2022/06/24 13:26:46;;;;;;;0.30;0.20;;;24.70;50.40;;;;;;6136937;28;20096;-43
2022/06/24 13:29:48;;;;;;;0.10;0.10;;;24.70;50.50;;;;;;6155725;28;20062;-43
2022/06/24 13:32:49;;;;;;;0.50;0.20;;;24.70;50.50;;;;;;6161488;28;21864;-44
2022/06/24 13:35:52;;;;;;;0.30;0.15;;;24.80;50.60;;;;;;6174503;28;20044;-44
2022/06/24 13:38:54;;;;;;;0.30;0.28;;;24.70;50.60;;;;;;6173897;28;20130;-45
2022/06/24 13:41:56;;;;;;;0.22;0.10;;;24.70;50.70;;;;;;6182050;28;20154;-46
2022/06/24 13:44:57;;;;;;;0.50;0.10;;;24.70;50.60;;;;;;6162519;28;20048;-43
2022/06/24 13:48:06;;;;;;;0.10;0.10;;;24.70;50.70;;;;;;6149869;28;20713;-44
2022/06/24 13:51:08;;;;;;;0.10;0.10;;;24.70;50.70;;;;;;6167802;28;20051;-44
2022/06/24 13:54:10;;;;;;;0.10;0.10;;;24.70;50.70;;;;;;6170954;28;20134;-44
2022/06/24 13:57:12;;;;;;;0.10;0.10;;;24.70;50.70;;;;;;6152383;28;20055;-46
2022/06/24 14:00:14;;;;;;;0.10;0.10;;;24.60;50.80;;;;;;6148539;28;20086;-46
2022/06/24 14:03:15;;;;;;;0.20;0.20;;;24.70;50.90;;;;;;6178760;28;20506;-47
2022/06/24 14:06:18;;;;;;;0.10;0.10;;;24.70;51.00;;;;;;6161467;28;20170;-47
2022/06/24 14:09:19;;;;;;;0.10;0.10;;;24.70;51.20;;;;;;6173979;28;20705;-43
2022/06/24 14:12:21;;;;;;;0.20;0.20;;;24.70;51.40;;;;;;6155610;28;22062;-43
2022/06/24 14:15:23;;;;;;;0.57;0.10;;;24.70;51.40;;;;;;6166490;28;20039;-44
2022/06/24 14:18:25;;;;;;;0.10;0.10;;;24.70;51.50;;;;;;6172301;28;20043;-45
2022/06/24 14:21:27;;;;;;;0.10;0.10;;;24.60;51.60;;;;;;6148023;28;20157;-44
2022/06/24 14:24:31;;;;;;;0.10;0.10;;;24.60;51.60;;;;;;6120591;28;20825;-44
2022/06/24 14:27:33;;;;;;;0.28;0.15;;;24.70;51.80;;;;;;6127208;28;20341;-43
2022/06/24 14:30:37;;;;;;;0.38;0.20;;;24.70;51.90;;;;;;6117935;28;22862;-46
2022/06/24 14:33:38;;;;;;;0.73;0.20;;;24.70;52.00;;;;;;6131290;28;21142;-42
2022/06/24 14:36:41;;;;;;;0.20;0.10;;;24.70;52.10;;;;;;6128871;28;20310;-43
2022/06/24 14:42:59;;;;;;;0.20;0.10;;;24.70;52.10;;;;;;6119526;28;20699;-44
2022/06/24 14:46:01;;;;;;;0.30;0.20;;;24.80;52.20;;;;;;6131316;28;20153;-47
2022/06/24 14:49:04;;;;;;;0.98;0.10;;;24.60;52.00;;;;;;6167638;28;20154;-43
2022/06/24 14:52:26;;;;;;;0.10;0.10;;;24.70;52.00;;;;;;6154960;28;20156;-43
2022/06/24 14:55:29;;;;;;;0.43;0.10;;;24.60;52.00;;;;;;6166828;28;20659;-45
2022/06/24 14:58:30;;;;;;;0.00;0.00;;;24.70;52.10;;;;;;6187128;28;20051;-43
2022/06/24 15:01:32;;;;;;;0.30;0.30;;;24.70;52.10;;;;;;6152707;28;20227;-45
2022/06/24 15:04:34;;;;;;;0.45;0.10;;;24.70;52.20;;;;;;6165894;28;20209;-46
2022/06/24 15:07:36;;;;;;;0.28;0.13;;;24.70;52.30;;;;;;6137447;28;20042;-48
2022/06/24 15:10:37;;;;;;;0.10;0.10;;;24.70;52.50;;;;;;6180903;28;20934;-43
2022/06/24 15:13:39;;;;;;;0.10;0.10;;;24.70;52.50;;;;;;6162489;28;20136;-46
2022/06/24 15:16:41;;;;;;;0.17;0.10;;;25.00;52.70;;;;;;6177395;28;20169;-45
2022/06/24 15:19:44;;;;;;;0.15;0.10;;;24.70;52.60;;;;;;6192573;28;21278;-46
2022/06/24 15:22:46;;;;;;;0.47;0.10;;;24.70;52.50;;;;;;6200713;28;20058;-45
2022/06/24 15:25:47;;;;;;;0.52;0.13;;;24.70;52.50;;;;;;6192235;28;20051;-45
2022/06/24 15:28:50;;;;;;;0.10;0.10;;;24.70;52.50;;;;;;6194390;28;20353;-43
2022/06/24 15:31:52;;;;;;;0.10;0.10;;;24.70;52.60;;;;;;6197761;28;20242;-44
2022/06/24 15:34:54;;;;;;;0.00;0.00;;;24.90;52.70;;;;;;6199423;28;21781;-46
2022/06/24 15:37:56;;;;;;;0.10;0.10;;;24.70;52.60;;;;;;6195738;28;20099;-44
2022/06/24 15:40:58;;;;;;;0.10;0.00;;;24.70;52.60;;;;;;6184779;28;20509;-43
2022/06/24 15:44:00;;;;;;;1.85;0.10;;;24.70;52.60;;;;;;6199976;28;20166;-45
2022/06/24 15:47:01;;;;;;;0.25;0.17;;;24.70;52.50;;;;;;6222773;28;20051;-45
2022/06/24 15:50:04;;;;;;;0.60;0.00;;;24.70;52.50;;;;;;6201453;28;20032;-45
2022/06/24 15:53:06;;;;;;;0.30;0.10;;;24.70;52.50;;;;;;6216320;28;20054;-46
2022/06/24 15:56:08;;;;;;;0.40;0.20;;;24.70;52.50;;;;;;6235122;28;20043;-47
2022/06/24 15:59:10;;;;;;;0.10;0.08;;;24.70;52.50;;;;;;6212269;28;20048;-44
2022/06/24 16:02:11;;;;;;;0.32;0.10;;;24.70;52.50;;;;;;6224796;28;21287;-44
2022/06/24 16:05:13;;;;;;;0.38;0.13;;;24.70;52.60;;;;;;6223298;28;20032;-45
2022/06/24 16:08:15;;;;;;;0.10;0.10;;;24.70;52.60;;;;;;6235897;28;20043;-47
2022/06/24 16:11:17;;;;;;;0.63;0.10;;;24.70;52.70;;;;;;6241098;27;20052;-44